sensor_id;sensor_type;location;lat;lon;timestamp;pressure;altitude;pressure_sealevel;temperature;humidity
59757;BME280;45631;51.962;5.974;2023-04-02T00:00:18;100965.66;;;5.51;100.00
59757;BME280;45631;51.962;5.974;2023-04-02T00:02:54;100970.22;;;5.46;100.00
59757;BME280;45631;51.962;5.974;2023-04-02T00:05:38;100984.34;;;5.40;100.00
59757;BME280;45631;51.962;5.974;2023-04-02T00:08:26;100976.06;;;5.31;100.00
59757;BME280;45631;51.962;5.974;2023-04-02T00:10:58;100972.59;;;5.30;100.00
59757;BME280;45631;51.962;5.974;2023-04-02T00:13:32;100988.91;;;5.35;100.00
59757;BME280;45631;51.962;5.974;2023-04-02T00:16:01;100986.56;;;5.29;100.00
59757;BME280;45631;51.962;5.974;2023-04-02T00:18:31;100992.56;;;5.31;100.00
59757;BME280;45631;51.962;5.974;2023-04-02T00:21:10;101009.06;;;5.32;100.00
59757;BME280;45631;51.962;5.974;2023-04-02T00:23:41;101008.41;;;5.27;100.00
59757;BME280;45631;51.962;5.974;2023-04-02T00:26:27;101017.00;;;5.29;100.00
59757;BME280;45631;51.962;5.974;2023-04-02T00:28:59;101013.63;;;5.27;100.00
59757;BME280;45631;51.962;5.974;2023-04-02T00:31:30;101022.34;;;5.25;100.00
59757;BME280;45631;51.962;5.974;2023-04-02T00:34:00;101040.53;;;5.27;100.00
59757;BME280;45631;51.962;5.974;2023-04-02T00:36:32;101035.50;;;5.22;100.00
59757;BME280;45631;51.962;5.974;2023-04-02T00:39:09;101030.41;;;5.19;100.00
59757;BME280;45631;51.962;5.974;2023-04-02T00:41:41;101033.88;;;5.20;100.00
59757;BME280;45631;51.962;5.974;2023-04-02T00:44:13;101039.03;;;5.21;100.00
59757;BME280;45631;51.962;5.974;2023-04-02T00:46:48;101045.28;;;5.17;100.00
59757;BME280;45631;51.962;5.974;2023-04-02T00:49:24;101042.41;;;5.23;100.00
59757;BME280;45631;51.962;5.974;2023-04-02T00:52:00;101044.31;;;5.20;100.00
59757;BME280;45631;51.962;5.974;2023-04-02T00:54:31;101041.69;;;5.20;100.00
59757;BME280;45631;51.962;5.974;2023-04-02T00:57:00;101056.53;;;5.18;100.00
59757;BME280;45631;51.962;5.974;2023-04-02T00:59:30;101068.53;;;5.22;100.00
59757;BME280;45631;51.962;5.974;2023-04-02T01:02:18;101059.03;;;5.21;100.00
59757;BME280;45631;51.962;5.974;2023-04-02T01:04:51;101074.06;;;5.14;100.00
59757;BME280;45631;51.962;5.974;2023-04-02T01:07:29;101087.06;;;5.16;100.00
59757;BME280;45631;51.962;5.974;2023-04-02T01:10:14;101093.22;;;5.13;100.00
59757;BME280;45631;51.962;5.974;2023-04-02T01:12:52;101090.50;;;5.16;100.00
59757;BME280;45631;51.962;5.974;2023-04-02T01:15:27;101094.94;;;5.14;100.00
59757;BME280;45631;51.962;5.974;2023-04-02T01:18:11;101103.94;;;5.05;100.00
59757;BME280;45631;51.962;5.974;2023-04-02T01:21:09;101100.38;;;5.08;100.00
59757;BME280;45631;51.962;5.974;2023-04-02T01:23:52;101102.69;;;5.16;100.00
59757;BME280;45631;51.962;5.974;2023-04-02T01:26:44;101107.91;;;5.16;100.00
59757;BME280;45631;51.962;5.974;2023-04-02T01:29:17;101107.03;;;5.15;100.00
59757;BME280;45631;51.962;5.974;2023-04-02T01:31:46;101111.47;;;5.13;100.00
59757;BME280;45631;51.962;5.974;2023-04-02T01:34:18;101122.03;;;5.10;100.00
59757;BME280;45631;51.962;5.974;2023-04-02T01:36:54;101130.81;;;5.07;100.00
59757;BME280;45631;51.962;5.974;2023-04-02T01:39:37;101144.06;;;5.01;100.00
59757;BME280;45631;51.962;5.974;2023-04-02T01:42:11;101143.28;;;4.99;100.00
59757;BME280;45631;51.962;5.974;2023-04-02T01:44:47;101153.94;;;4.93;100.00
59757;BME280;45631;51.962;5.974;2023-04-02T01:47:18;101156.59;;;4.91;100.00
59757;BME280;45631;51.962;5.974;2023-04-02T01:49:46;101157.50;;;4.90;100.00
59757;BME280;45631;51.962;5.974;2023-04-02T01:52:17;101167.91;;;4.90;100.00
59757;BME280;45631;51.962;5.974;2023-04-02T01:54:46;101170.69;;;4.86;100.00
59757;BME280;45631;51.962;5.974;2023-04-02T01:57:15;101182.03;;;4.85;100.00
59757;BME280;45631;51.962;5.974;2023-04-02T01:59:44;101177.88;;;4.79;100.00
59757;BME280;45631;51.962;5.974;2023-04-02T02:02:16;101182.03;;;4.85;100.00
59757;BME280;45631;51.962;5.974;2023-04-02T02:04:45;101189.00;;;4.84;100.00
59757;BME280;45631;51.962;5.974;2023-04-02T02:07:14;101192.63;;;4.80;100.00
59757;BME280;45631;51.962;5.974;2023-04-02T02:09:43;101193.53;;;4.79;100.00
59757;BME280;45631;51.962;5.974;2023-04-02T02:12:13;101191.75;;;4.80;100.00
59757;BME280;45631;51.962;5.974;2023-04-02T02:14:46;101206.66;;;4.76;100.00
59757;BME280;45631;51.962;5.974;2023-04-02T02:17:17;101206.81;;;4.71;100.00
59757;BME280;45631;51.962;5.974;2023-04-02T02:19:49;101211.94;;;4.74;100.00
59757;BME280;45631;51.962;5.974;2023-04-02T02:22:25;101211.06;;;4.74;100.00
59757;BME280;45631;51.962;5.974;2023-04-02T02:24:55;101222.31;;;4.76;100.00
59757;BME280;45631;51.962;5.974;2023-04-02T02:27:46;101232.81;;;4.73;100.00
59757;BME280;45631;51.962;5.974;2023-04-02T02:30:20;101232.03;;;4.71;100.00
59757;BME280;45631;51.962;5.974;2023-04-02T02:32:53;101226.88;;;4.69;100.00
59757;BME280;45631;51.962;5.974;2023-04-02T02:35:27;101240.81;;;4.68;100.00
59757;BME280;45631;51.962;5.974;2023-04-02T02:38:07;101248.69;;;4.67;100.00
59757;BME280;45631;51.962;5.974;2023-04-02T02:40:42;101246.13;;;4.65;100.00
59757;BME280;45631;51.962;5.974;2023-04-02T02:43:13;101249.47;;;4.69;100.00
59757;BME280;45631;51.962;5.974;2023-04-02T02:45:44;101265.25;;;4.64;100.00
59757;BME280;45631;51.962;5.974;2023-04-02T02:48:17;101260.09;;;4.63;100.00
59757;BME280;45631;51.962;5.974;2023-04-02T02:50:46;101261.00;;;4.62;100.00
59757;BME280;45631;51.962;5.974;2023-04-02T02:53:17;101263.00;;;4.53;100.00
59757;BME280;45631;51.962;5.974;2023-04-02T02:55:48;101281.41;;;4.49;100.00
59757;BME280;45631;51.962;5.974;2023-04-02T02:58:19;101285.75;;;4.48;100.00
59757;BME280;45631;51.962;5.974;2023-04-02T03:00:53;101285.84;;;4.45;100.00
59757;BME280;45631;51.962;5.974;2023-04-02T03:03:25;101289.16;;;4.50;100.00
59757;BME280;45631;51.962;5.974;2023-04-02T03:05:57;101300.59;;;4.46;100.00
59757;BME280;45631;51.962;5.974;2023-04-02T03:08:31;101310.63;;;4.30;100.00
59757;BME280;45631;51.962;5.974;2023-04-02T03:11:01;101323.09;;;4.20;100.00
59757;BME280;45631;51.962;5.974;2023-04-02T03:13:33;101314.34;;;4.23;100.00
59757;BME280;45631;51.962;5.974;2023-04-02T03:16:08;101324.09;;;4.16;100.00
59757;BME280;45631;51.962;5.974;2023-04-02T03:18:43;101319.88;;;4.12;100.00
59757;BME280;45631;51.962;5.974;2023-04-02T03:21:19;101324.25;;;4.10;100.00
59757;BME280;45631;51.962;5.974;2023-04-02T03:23:53;101327.78;;;4.09;100.00
59757;BME280;45631;51.962;5.974;2023-04-02T03:26:26;101339.00;;;4.11;100.00
59757;BME280;45631;51.962;5.974;2023-04-02T03:29:00;101337.22;;;4.12;100.00
59757;BME280;45631;51.962;5.974;2023-04-02T03:31:34;101344.09;;;4.14;100.00
59757;BME280;45631;51.962;5.974;2023-04-02T03:34:09;101348.34;;;4.17;100.00
59757;BME280;45631;51.962;5.974;2023-04-02T03:36:42;101356.41;;;4.09;100.00
59757;BME280;45631;51.962;5.974;2023-04-02T03:39:19;101358.09;;;4.10;100.00
59757;BME280;45631;51.962;5.974;2023-04-02T03:41:52;101361.69;;;4.06;100.00
59757;BME280;45631;51.962;5.974;2023-04-02T03:44:25;101364.22;;;4.09;100.00
59757;BME280;45631;51.962;5.974;2023-04-02T03:46:57;101366.75;;;4.12;100.00
59757;BME280;45631;51.962;5.974;2023-04-02T03:49:31;101376.38;;;4.09;100.00
59757;BME280;45631;51.962;5.974;2023-04-02T03:52:04;101377.38;;;4.04;100.00
59757;BME280;45631;51.962;5.974;2023-04-02T03:54:33;101387.72;;;4.06;100.00
59757;BME280;45631;51.962;5.974;2023-04-02T03:57:01;101394.66;;;4.07;100.00
59757;BME280;45631;51.962;5.974;2023-04-02T03:59:36;101405.94;;;4.06;100.00
59757;BME280;45631;51.962;5.974;2023-04-02T04:02:22;101420.72;;;4.05;100.00
59757;BME280;45631;51.962;5.974;2023-04-02T04:04:54;101417.41;;;4.00;100.00
59757;BME280;45631;51.962;5.974;2023-04-02T04:07:29;101423.50;;;3.99;100.00
59757;BME280;45631;51.962;5.974;2023-04-02T04:09:59;101432.25;;;3.97;100.00
59757;BME280;45631;51.962;5.974;2023-04-02T04:12:30;101434.88;;;3.95;100.00
59757;BME280;45631;51.962;5.974;2023-04-02T04:15:02;101431.59;;;3.88;100.00
59757;BME280;45631;51.962;5.974;2023-04-02T04:17:46;101449.84;;;3.87;100.00
59757;BME280;45631;51.962;5.974;2023-04-02T04:20:19;101449.13;;;3.83;100.00
59757;BME280;45631;51.962;5.974;2023-04-02T04:22:49;101459.53;;;3.83;100.00
59757;BME280;45631;51.962;5.974;2023-04-02T04:25:24;101466.50;;;3.81;100.00
59757;BME280;45631;51.962;5.974;2023-04-02T04:28:00;101472.50;;;3.85;100.00
59757;BME280;45631;51.962;5.974;2023-04-02T04:30:39;101483.00;;;3.80;100.00
59757;BME280;45631;51.962;5.974;2023-04-02T04:33:16;101483.00;;;3.80;100.00
59757;BME280;45631;51.962;5.974;2023-04-02T04:35:51;101502.28;;;3.73;100.00
59757;BME280;45631;51.962;5.974;2023-04-02T04:38:28;101505.06;;;3.67;100.00
59757;BME280;45631;51.962;5.974;2023-04-02T04:41:03;101504.28;;;3.63;100.00
59757;BME280;45631;51.962;5.974;2023-04-02T04:43:39;101506.75;;;3.68;100.00
59757;BME280;45631;51.962;5.974;2023-04-02T04:46:12;101519.31;;;3.52;100.00
59757;BME280;45631;51.962;5.974;2023-04-02T04:48:49;101517.59;;;3.51;100.00
59757;BME280;45631;51.962;5.974;2023-04-02T04:51:21;101527.09;;;3.52;100.00
59757;BME280;45631;51.962;5.974;2023-04-02T04:53:52;101537.50;;;3.52;100.00
59757;BME280;45631;51.962;5.974;2023-04-02T04:56:24;101549.84;;;3.42;100.00
59757;BME280;45631;51.962;5.974;2023-04-02T04:58:58;101552.53;;;3.39;100.00
59757;BME280;45631;51.962;5.974;2023-04-02T05:01:32;101552.53;;;3.39;100.00
59757;BME280;45631;51.962;5.974;2023-04-02T05:04:11;101563.88;;;3.36;100.00
59757;BME280;45631;51.962;5.974;2023-04-02T05:06:48;101576.16;;;3.30;100.00
59757;BME280;45631;51.962;5.974;2023-04-02T05:09:22;101583.34;;;3.18;100.00
59757;BME280;45631;51.962;5.974;2023-04-02T05:11:54;101579.94;;;3.16;100.00
59757;BME280;45631;51.962;5.974;2023-04-02T05:14:27;101593.78;;;3.17;100.00
59757;BME280;45631;51.962;5.974;2023-04-02T05:17:03;101600.75;;;3.15;100.00
59757;BME280;45631;51.962;5.974;2023-04-02T05:19:40;101604.34;;;3.09;100.00
59757;BME280;45631;51.962;5.974;2023-04-02T05:22:18;101619.06;;;3.10;100.00
59757;BME280;45631;51.962;5.974;2023-04-02T05:24:55;101623.44;;;3.07;100.00
59757;BME280;45631;51.962;5.974;2023-04-02T05:27:32;101631.28;;;3.05;100.00
59757;BME280;45631;51.962;5.974;2023-04-02T05:30:09;101635.56;;;3.08;100.00
59757;BME280;45631;51.962;5.974;2023-04-02T05:32:42;101632.25;;;3.01;100.00
59757;BME280;45631;51.962;5.974;2023-04-02T05:35:16;101640.91;;;3.01;100.00
59757;BME280;45631;51.962;5.974;2023-04-02T05:37:48;101634.97;;;2.95;100.00
59757;BME280;45631;51.962;5.974;2023-04-02T05:40:22;101647.09;;;2.94;100.00
59757;BME280;45631;51.962;5.974;2023-04-02T05:42:53;101650.72;;;2.87;100.00
59757;BME280;45631;51.962;5.974;2023-04-02T05:45:27;101655.91;;;2.87;100.00
59757;BME280;45631;51.962;5.974;2023-04-02T05:47:59;101666.41;;;2.82;100.00
59757;BME280;45631;51.962;5.974;2023-04-02T05:50:33;101674.16;;;2.84;100.00
59757;BME280;45631;51.962;5.974;2023-04-02T05:53:09;101682.84;;;2.83;100.00
59757;BME280;45631;51.962;5.974;2023-04-02T05:55:43;101691.59;;;2.79;100.00
59757;BME280;45631;51.962;5.974;2023-04-02T05:58:21;101691.53;;;2.82;100.00
59757;BME280;45631;51.962;5.974;2023-04-02T06:01:01;101694.25;;;2.76;100.00
59757;BME280;45631;51.962;5.974;2023-04-02T06:03:41;101701.25;;;2.70;100.00
59757;BME280;45631;51.962;5.974;2023-04-02T06:06:22;101701.31;;;2.69;100.00
59757;BME280;45631;51.962;5.974;2023-04-02T06:08:56;101707.31;;;2.71;100.00
59757;BME280;45631;51.962;5.974;2023-04-02T06:11:28;101703.91;;;2.69;100.00
59757;BME280;45631;51.962;5.974;2023-04-02T06:13:58;101713.50;;;2.64;100.00
59757;BME280;45631;51.962;5.974;2023-04-02T06:16:27;101723.00;;;2.66;100.00
59757;BME280;45631;51.962;5.974;2023-04-02T06:18:57;101733.44;;;2.62;100.00
59757;BME280;45631;51.962;5.974;2023-04-02T06:21:27;101733.41;;;2.65;100.00
59757;BME280;45631;51.962;5.974;2023-04-02T06:23:58;101747.38;;;2.59;100.00
59757;BME280;45631;51.962;5.974;2023-04-02T06:26:32;101752.69;;;2.51;100.00
59757;BME280;45631;51.962;5.974;2023-04-02T06:29:04;101753.63;;;2.47;100.00
59757;BME280;45631;51.962;5.974;2023-04-02T06:31:37;101757.00;;;2.52;100.00
59757;BME280;45631;51.962;5.974;2023-04-02T06:34:12;101764.72;;;2.56;100.00
59757;BME280;45631;51.962;5.974;2023-04-02T06:36:43;101771.75;;;2.49;100.00
59757;BME280;45631;51.962;5.974;2023-04-02T06:39:17;101776.94;;;2.50;100.00
59757;BME280;45631;51.962;5.974;2023-04-02T06:41:45;101787.41;;;2.46;100.00
59757;BME280;45631;51.962;5.974;2023-04-02T06:44:15;101789.09;;;2.48;100.00
59757;BME280;45631;51.962;5.974;2023-04-02T06:46:47;101805.50;;;2.50;100.00
59757;BME280;45631;51.962;5.974;2023-04-02T06:49:21;101799.50;;;2.45;100.00
59757;BME280;45631;51.962;5.974;2023-04-02T06:51:53;101808.97;;;2.49;100.00
59757;BME280;45631;51.962;5.974;2023-04-02T06:54:22;101809.72;;;2.56;100.00
59757;BME280;45631;51.962;5.974;2023-04-02T06:56:52;101821.03;;;2.53;100.00
59757;BME280;45631;51.962;5.974;2023-04-02T06:59:22;101822.72;;;2.56;100.00
59757;BME280;45631;51.962;5.974;2023-04-02T07:01:52;101834.81;;;2.57;100.00
59757;BME280;45631;51.962;5.974;2023-04-02T07:04:23;101834.75;;;2.62;100.00
59757;BME280;45631;51.962;5.974;2023-04-02T07:06:54;101846.09;;;2.56;100.00
59757;BME280;45631;51.962;5.974;2023-04-02T07:09:23;101854.66;;;2.63;100.00
59757;BME280;45631;51.962;5.974;2023-04-02T07:11:51;101850.31;;;2.65;100.00
59757;BME280;45631;51.962;5.974;2023-04-02T07:14:19;101859.66;;;2.74;100.00
59757;BME280;45631;51.962;5.974;2023-04-02T07:16:47;101860.63;;;2.68;100.00
59757;BME280;45631;51.962;5.974;2023-04-02T07:19:18;101863.19;;;2.69;100.00
59757;BME280;45631;51.962;5.974;2023-04-02T07:21:46;101875.38;;;2.67;100.00
59757;BME280;45631;51.962;5.974;2023-04-02T07:24:16;101878.78;;;2.69;100.00
59757;BME280;45631;51.962;5.974;2023-04-02T07:26:44;101885.75;;;2.67;100.00
59757;BME280;45631;51.962;5.974;2023-04-02T07:29:14;101889.06;;;2.77;100.00
59757;BME280;45631;51.962;5.974;2023-04-02T07:31:43;101891.56;;;2.83;100.00
59757;BME280;45631;51.962;5.974;2023-04-02T07:34:11;101893.19;;;2.91;100.00
59757;BME280;45631;51.962;5.974;2023-04-02T07:36:39;101902.06;;;2.77;100.00
59757;BME280;45631;51.962;5.974;2023-04-02T07:39:10;101916.75;;;2.80;100.00
59757;BME280;45631;51.962;5.974;2023-04-02T07:41:51;101906.38;;;2.77;100.00
59757;BME280;45631;51.962;5.974;2023-04-02T07:44:20;101918.50;;;2.78;100.00
59757;BME280;45631;51.962;5.974;2023-04-02T07:46:48;101932.31;;;2.81;100.00
59757;BME280;45631;51.962;5.974;2023-04-02T07:49:16;101921.91;;;2.81;100.00
59757;BME280;45631;51.962;5.974;2023-04-02T07:51:45;101918.34;;;2.88;100.00
59757;BME280;45631;51.962;5.974;2023-04-02T07:54:13;101920.88;;;2.92;100.00
59757;BME280;45631;51.962;5.974;2023-04-02T07:56:43;101924.38;;;2.91;100.00
59757;BME280;45631;51.962;5.974;2023-04-02T07:59:13;101919.88;;;3.00;100.00
59757;BME280;45631;51.962;5.974;2023-04-02T08:01:41;101937.22;;;3.01;100.00
59757;BME280;45631;51.962;5.974;2023-04-02T08:04:16;101928.31;;;3.13;100.00
59757;BME280;45631;51.962;5.974;2023-04-02T08:06:45;101949.19;;;3.10;100.00
59757;BME280;45631;51.962;5.974;2023-04-02T08:09:14;101949.34;;;2.99;100.00
59757;BME280;45631;51.962;5.974;2023-04-02T08:11:42;101950.19;;;3.00;100.00
59757;BME280;45631;51.962;5.974;2023-04-02T08:14:13;101955.50;;;2.94;100.00
59757;BME280;45631;51.962;5.974;2023-04-02T08:16:43;101959.84;;;2.95;100.00
59757;BME280;45631;51.962;5.974;2023-04-02T08:19:12;101964.06;;;3.00;100.00
59757;BME280;45631;51.962;5.974;2023-04-02T08:21:44;101970.84;;;3.09;100.00
59757;BME280;45631;51.962;5.974;2023-04-02T08:24:16;101966.56;;;3.08;100.00
59757;BME280;45631;51.962;5.974;2023-04-02T08:26:46;101969.91;;;3.13;100.00
59757;BME280;45631;51.962;5.974;2023-04-02T08:29:16;101979.56;;;3.08;100.00
59757;BME280;45631;51.962;5.974;2023-04-02T08:31:44;101986.38;;;3.15;100.00
59757;BME280;45631;51.962;5.974;2023-04-02T08:34:12;101994.78;;;3.30;100.00
59757;BME280;45631;51.962;5.974;2023-04-02T08:36:42;101999.34;;;3.17;100.00
59757;BME280;45631;51.962;5.974;2023-04-02T08:39:11;102001.84;;;3.21;100.00
59757;BME280;45631;51.962;5.974;2023-04-02T08:41:43;102006.22;;;3.19;100.00
59757;BME280;45631;51.962;5.974;2023-04-02T08:44:36;102003.31;;;3.38;100.00
59757;BME280;45631;51.962;5.974;2023-04-02T08:47:07;102017.16;;;3.42;100.00
59757;BME280;45631;51.962;5.974;2023-04-02T08:49:40;102021.25;;;3.55;100.00
59757;BME280;45631;51.962;5.974;2023-04-02T08:52:19;102030.75;;;3.58;100.00
59757;BME280;45631;51.962;5.974;2023-04-02T08:54:48;102032.53;;;3.54;100.00
59757;BME280;45631;51.962;5.974;2023-04-02T08:57:22;102036.63;;;3.69;100.00
59757;BME280;45631;51.962;5.974;2023-04-02T08:59:58;102049.63;;;3.69;100.00
59757;BME280;45631;51.962;5.974;2023-04-02T09:02:33;102058.38;;;3.65;100.00
59757;BME280;45631;51.962;5.974;2023-04-02T09:05:06;102055.56;;;3.77;100.00
59757;BME280;45631;51.962;5.974;2023-04-02T09:07:42;102063.94;;;3.95;100.00
59757;BME280;45631;51.962;5.974;2023-04-02T09:10:12;102073.41;;;3.99;100.00
59757;BME280;45631;51.962;5.974;2023-04-02T09:12:42;102073.34;;;4.02;100.00
59757;BME280;45631;51.962;5.974;2023-04-02T09:15:21;102080.22;;;4.06;100.00
59757;BME280;45631;51.962;5.974;2023-04-02T09:17:56;102077.41;;;4.17;100.00
59757;BME280;45631;51.962;5.974;2023-04-02T09:20:26;102079.13;;;4.19;100.00
59757;BME280;45631;51.962;5.974;2023-04-02T09:22:55;102092.31;;;4.09;100.00
59757;BME280;45631;51.962;5.974;2023-04-02T09:25:25;102091.41;;;4.11;100.00
59757;BME280;45631;51.962;5.974;2023-04-02T09:27:57;102092.06;;;4.22;100.00
59757;BME280;45631;51.962;5.974;2023-04-02T09:30:41;102098.06;;;4.28;100.00
59757;BME280;45631;51.962;5.974;2023-04-02T09:33:16;102098.00;;;4.32;100.00
59757;BME280;45631;51.962;5.974;2023-04-02T09:35:53;102101.25;;;4.44;100.00
59757;BME280;45631;51.962;5.974;2023-04-02T09:38:24;102104.44;;;4.56;100.00
59757;BME280;45631;51.962;5.974;2023-04-02T09:40:58;102103.56;;;4.57;100.00
59757;BME280;45631;51.962;5.974;2023-04-02T09:43:28;102106.91;;;4.64;100.00
59757;BME280;45631;51.962;5.974;2023-04-02T09:46:00;102108.50;;;4.71;100.00
59757;BME280;45631;51.962;5.974;2023-04-02T09:48:31;102127.47;;;4.78;100.00
59757;BME280;45631;51.962;5.974;2023-04-02T09:51:06;102119.06;;;4.65;100.00
59757;BME280;45631;51.962;5.974;2023-04-02T09:53:35;102125.88;;;4.71;100.00
59757;BME280;45631;51.962;5.974;2023-04-02T09:56:13;102136.22;;;4.76;100.00
59757;BME280;45631;51.962;5.974;2023-04-02T09:58:42;102141.22;;;4.86;100.00
59757;BME280;45631;51.962;5.974;2023-04-02T10:01:27;102145.44;;;4.92;100.00
59757;BME280;45631;51.962;5.974;2023-04-02T10:03:56;102159.25;;;4.97;100.00
59757;BME280;45631;51.962;5.974;2023-04-02T10:06:27;102161.06;;;4.92;100.00
59757;BME280;45631;51.962;5.974;2023-04-02T10:08:56;102165.50;;;4.88;100.00
59757;BME280;45631;51.962;5.974;2023-04-02T10:11:30;102165.19;;;5.04;100.00
59757;BME280;45631;51.962;5.974;2023-04-02T10:14:17;102169.63;;;4.99;100.00
59757;BME280;45631;51.962;5.974;2023-04-02T10:16:50;102181.84;;;4.97;100.00
59757;BME280;45631;51.962;5.974;2023-04-02T10:19:25;102184.41;;;5.00;100.00
59757;BME280;45631;51.962;5.974;2023-04-02T10:21:57;102181.75;;;5.01;100.00
59757;BME280;45631;51.962;5.974;2023-04-02T10:24:27;102187.88;;;4.99;100.00
59757;BME280;45631;51.962;5.974;2023-04-02T10:27:02;102192.53;;;4.84;100.00
59757;BME280;45631;51.962;5.974;2023-04-02T10:29:50;102194.25;;;4.84;100.00
59757;BME280;45631;51.962;5.974;2023-04-02T10:32:29;102191.81;;;5.20;100.00
59757;BME280;45631;51.962;5.974;2023-04-02T10:35:01;102199.34;;;5.34;100.00
59757;BME280;45631;51.962;5.974;2023-04-02T10:37:51;102201.81;;;5.79;100.00
59757;BME280;45631;51.962;5.974;2023-04-02T10:40:26;102198.88;;;5.93;100.00
59757;BME280;45631;51.962;5.974;2023-04-02T10:45:53;102208.56;;;6.58;100.00
59757;BME280;45631;51.962;5.974;2023-04-02T10:48:29;102199.47;;;6.73;100.00
59757;BME280;45631;51.962;5.974;2023-04-02T10:51:02;102205.63;;;7.04;100.00
59757;BME280;45631;51.962;5.974;2023-04-02T10:53:39;102208.75;;;7.45;100.00
59757;BME280;45631;51.962;5.974;2023-04-02T10:56:11;102207.97;;;7.71;100.00
59757;BME280;45631;51.962;5.974;2023-04-02T10:58:51;102210.13;;;7.87;100.00
59757;BME280;45631;51.962;5.974;2023-04-02T11:01:25;102207.34;;;8.18;100.00
59757;BME280;45631;51.962;5.974;2023-04-02T11:03:58;102211.88;;;8.40;100.00
59757;BME280;45631;51.962;5.974;2023-04-02T11:06:31;102206.91;;;8.57;100.00
59757;BME280;45631;51.962;5.974;2023-04-02T11:09:02;102217.22;;;8.87;100.00
59757;BME280;45631;51.962;5.974;2023-04-02T11:11:36;102212.00;;;9.11;100.00
59757;BME280;45631;51.962;5.974;2023-04-02T11:14:11;102218.75;;;9.40;100.00
59757;BME280;45631;51.962;5.974;2023-04-02T11:16:40;102216.00;;;9.43;100.00
59757;BME280;45631;51.962;5.974;2023-04-02T11:19:24;102216.28;;;9.59;97.31
59757;BME280;45631;51.962;5.974;2023-04-02T11:21:54;102222.00;;;9.47;96.28
59757;BME280;45631;51.962;5.974;2023-04-02T11:24:45;102217.09;;;9.61;100.00
59757;BME280;45631;51.962;5.974;2023-04-02T11:27:20;102208.22;;;10.29;100.00
59757;BME280;45631;51.962;5.974;2023-04-02T11:29:52;102217.72;;;10.54;97.36
59757;BME280;45631;51.962;5.974;2023-04-02T11:32:32;102216.63;;;10.59;93.45
59757;BME280;45631;51.962;5.974;2023-04-02T11:35:23;102218.00;;;10.68;87.73
59757;BME280;45631;51.962;5.974;2023-04-02T11:37:53;102231.66;;;10.35;85.48
59757;BME280;45631;51.962;5.974;2023-04-02T11:40:49;102233.63;;;10.71;91.11
59757;BME280;45631;51.962;5.974;2023-04-02T11:43:50;102233.41;;;10.96;79.65
59757;BME280;45631;51.962;5.974;2023-04-02T11:46:43;102233.38;;;11.17;84.84
59757;BME280;45631;51.962;5.974;2023-04-02T11:49:37;102232.00;;;11.08;82.82
59757;BME280;45631;51.962;5.974;2023-04-02T11:52:21;102249.25;;;11.54;81.48
59757;BME280;45631;51.962;5.974;2023-04-02T11:55:19;102245.53;;;11.20;78.14
59757;BME280;45631;51.962;5.974;2023-04-02T12:04:33;102260.41;;;11.59;75.30
59757;BME280;45631;51.962;5.974;2023-04-02T12:07:17;102252.78;;;11.72;74.81
59757;BME280;45631;51.962;5.974;2023-04-02T12:09:56;102255.38;;;12.10;75.63
59757;BME280;45631;51.962;5.974;2023-04-02T12:12:28;102266.41;;;12.18;72.01
59757;BME280;45631;51.962;5.974;2023-04-02T12:14:59;102264.88;;;12.31;70.55
59757;BME280;45631;51.962;5.974;2023-04-02T12:17:29;102262.22;;;12.66;73.85
59757;BME280;45631;51.962;5.974;2023-04-02T12:20:00;102265.38;;;12.91;69.22
59757;BME280;45631;51.962;5.974;2023-04-02T12:22:35;102271.22;;;12.62;68.10
59757;BME280;45631;51.962;5.974;2023-04-02T12:25:27;102279.22;;;12.26;65.19
59757;BME280;45631;51.962;5.974;2023-04-02T12:28:06;102284.06;;;11.98;67.32
59757;BME280;45631;51.962;5.974;2023-04-02T12:30:44;102276.59;;;12.43;68.07
59757;BME280;45631;51.962;5.974;2023-04-02T12:33:22;102281.94;;;12.59;70.25
59757;BME280;45631;51.962;5.974;2023-04-02T12:35:55;102291.91;;;12.37;69.19
59757;BME280;45631;51.962;5.974;2023-04-02T12:38:25;102294.97;;;12.80;68.31
59757;BME280;45631;51.962;5.974;2023-04-02T12:40:57;102295.69;;;12.83;70.06
59757;BME280;45631;51.962;5.974;2023-04-02T12:43:26;102297.16;;;12.89;68.27
59757;BME280;45631;51.962;5.974;2023-04-02T12:45:57;102301.94;;;13.16;68.42
59757;BME280;45631;51.962;5.974;2023-04-02T12:48:26;102302.97;;;13.29;68.47
59757;BME280;45631;51.962;5.974;2023-04-02T12:50:55;102312.00;;;13.25;68.55
59757;BME280;45631;51.962;5.974;2023-04-02T12:53:29;102298.84;;;12.90;65.78
59757;BME280;45631;51.962;5.974;2023-04-02T12:56:02;102306.88;;;13.22;64.76
59757;BME280;45631;51.962;5.974;2023-04-02T12:58:33;102297.50;;;13.50;64.31
59757;BME280;45631;51.962;5.974;2023-04-02T13:01:11;102299.56;;;13.27;64.01
59757;BME280;45631;51.962;5.974;2023-04-02T13:03:40;102302.41;;;13.07;63.19
59757;BME280;45631;51.962;5.974;2023-04-02T13:06:26;102294.09;;;13.30;63.24
59757;BME280;45631;51.962;5.974;2023-04-02T13:08:56;102302.72;;;13.00;62.76
59757;BME280;45631;51.962;5.974;2023-04-02T13:11:35;102307.84;;;13.04;61.71
59757;BME280;45631;51.962;5.974;2023-04-02T13:14:06;102299.72;;;13.24;61.70
59757;BME280;45631;51.962;5.974;2023-04-02T13:16:35;102309.09;;;13.47;61.61
59757;BME280;45631;51.962;5.974;2023-04-02T13:19:11;102307.09;;;13.35;61.73
59757;BME280;45631;51.962;5.974;2023-04-02T13:21:47;102308.16;;;13.48;61.51
59757;BME280;45631;51.962;5.974;2023-04-02T13:24:16;102303.91;;;13.28;60.37
59757;BME280;45631;51.962;5.974;2023-04-02T13:26:46;102306.78;;;13.89;62.51
59757;BME280;45631;51.962;5.974;2023-04-02T13:29:22;102307.28;;;13.48;61.15
59757;BME280;45631;51.962;5.974;2023-04-02T13:31:51;102305.63;;;13.95;62.22
59757;BME280;45631;51.962;5.974;2023-04-02T13:34:20;102309.53;;;13.72;60.03